Time;durP1;ratioP1;P1;durP2;ratioP2;P2;SDS_P1;SDS_P2;PMS_P1;PMS_P2;Temp;Humidity;BMP_temperature;BMP_pressure;BME280_temperature;BME280_humidity;BME280_pressure;Samples;Min_cycle;Max_cycle;Signal;HPM_P1;HPM_P2
2023/08/21 00:02:49;;;;;;;;;;;;;;;;;;6343885;28;19926;-77
2023/08/21 00:05:50;;;;;;;;;;;;;;;;;;6344181;28;20005;-77
2023/08/21 00:08:51;;;;;;;;;;;;;;;;;;6347939;28;19934;-77
2023/08/21 00:11:53;;;;;;;;;;;;;;;;;;6344656;28;19968;-78
2023/08/21 00:14:54;;;;;;;;;;;;;;;;;;6345691;28;20200;-77
2023/08/21 00:17:55;;;;;;;;;;;;;;;;;;6344908;28;19928;-76
2023/08/21 00:20:57;;;;;;;;;;;;;;;;;;6347649;28;20496;-78
2023/08/21 00:23:58;;;;;;;;;;;;;;;;;;6343741;28;19927;-77
2023/08/21 00:26:59;;;;;;;;;;;;;;;;;;6345415;28;19928;-77
2023/08/21 00:30:00;;;;;;;;;;;;;;;;;;6338508;28;19920;-77
2023/08/21 00:33:01;;;;;;;;;;;;;;;;;;6348926;28;19934;-77
2023/08/21 00:36:03;;;;;;;;;;;;;;;;;;6342828;28;19934;-77
2023/08/21 00:39:04;;;;;;;;;;;;;;;;;;6342911;28;19919;-77
2023/08/21 00:42:07;;;;;;;;;;;;;;;;;;6342447;28;19931;-77
2023/08/21 00:45:09;;;;;;;;;;;;;;;;;;6346210;28;19928;-77
2023/08/21 00:48:10;;;;;;;;;;;;;;;;;;6346568;28;20120;-77
2023/08/21 00:51:11;;;;;;;;;;;;;;;;;;6349281;28;19928;-77
2023/08/21 00:54:13;;;;;;;;;;;;;;;;;;6344484;28;19926;-77
2023/08/21 00:57:14;;;;;;;;;;;;;;;;;;6346310;28;20085;-77
2023/08/21 01:00:15;;;;;;;;;;;;;;;;;;6346175;28;19935;-77
2023/08/21 01:03:16;;;;;;;;;;;;;;;;;;6344071;28;19938;-77
2023/08/21 01:06:17;;;;;;;;;;;;;;;;;;6342988;28;19980;-76
2023/08/21 01:09:19;;;;;;;;;;;;;;;;;;6342242;28;19932;-77
2023/08/21 01:12:20;;;;;;;;;;;;;;;;;;6341909;28;19935;-77
2023/08/21 01:15:21;;;;;;;;;;;;;;;;;;6341069;28;19924;-77
2023/08/21 01:18:22;;;;;;;;;;;;;;;;;;6343728;28;19928;-77
2023/08/21 01:21:24;;;;;;;;;;;;;;;;;;6343965;28;20027;-76
2023/08/21 01:24:25;;;;;;;;;;;;;;;;;;6347719;28;19927;-77
2023/08/21 01:27:26;;;;;;;;;;;;;;;;;;6350903;27;19926;-77
2023/08/21 01:30:27;;;;;;;;;;;;;;;;;;6342417;28;19974;-77
2023/08/21 01:33:28;;;;;;;;;;;;;;;;;;6351616;28;20211;-77
2023/08/21 01:36:30;;;;;;;;;;;;;;;;;;6349686;28;19919;-77
2023/08/21 01:39:31;;;;;;;;;;;;;;;;;;6351501;27;20132;-77
2023/08/21 01:42:32;;;;;;;;;;;;;;;;;;6348985;28;19928;-78
2023/08/21 01:45:33;;;;;;;;;;;;;;;;;;6345949;28;19965;-78
2023/08/21 01:48:35;;;;;;;;;;;;;;;;;;6347690;27;19919;-77
2023/08/21 01:51:36;;;;;;;;;;;;;;;;;;6350004;28;19920;-77
2023/08/21 01:54:37;;;;;;;;;;;;;;;;;;6347961;28;19939;-77
2023/08/21 01:57:38;;;;;;;;;;;;;;;;;;6348850;28;19934;-77
2023/08/21 02:00:40;;;;;;;;;;;;;;;;;;6344159;28;19934;-77
2023/08/21 02:03:41;;;;;;;;;;;;;;;;;;6349054;28;20018;-77
2023/08/21 02:06:43;;;;;;;;;;;;;;;;;;6347542;28;19936;-77
2023/08/21 02:09:45;;;;;;;;;;;;;;;;;;6346825;28;19928;-76
2023/08/21 02:12:46;;;;;;;;;;;;;;;;;;6346627;28;20225;-76
2023/08/21 02:15:47;;;;;;;;;;;;;;;;;;6350237;27;19934;-77
2023/08/21 02:18:48;;;;;;;;;;;;;;;;;;6352803;28;20245;-77
2023/08/21 02:21:50;;;;;;;;;;;;;;;;;;6357739;28;19919;-77
2023/08/21 02:24:51;;;;;;;;;;;;;;;;;;6351898;28;19927;-77
2023/08/21 02:27:52;;;;;;;;;;;;;;;;;;6354966;28;19924;-77
2023/08/21 02:30:53;;;;;;;;;;;;;;;;;;6348296;28;19920;-77
2023/08/21 02:33:55;;;;;;;;;;;;;;;;;;6355861;28;19920;-77
2023/08/21 02:36:56;;;;;;;;;;;;;;;;;;6354582;28;20278;-77
2023/08/21 02:39:57;;;;;;;;;;;;;;;;;;6355341;28;19935;-77
2023/08/21 02:42:58;;;;;;;;;;;;;;;;;;6355119;28;20174;-77
2023/08/21 02:46:00;;;;;;;;;;;;;;;;;;6353097;28;19924;-77
2023/08/21 02:49:01;;;;;;;;;;;;;;;;;;6356205;28;19928;-77
2023/08/21 02:52:02;;;;;;;;;;;;;;;;;;6351209;28;19919;-77
2023/08/21 02:55:03;;;;;;;;;;;;;;;;;;6344777;28;20176;-76
2023/08/21 02:58:04;;;;;;;;;;;;;;;;;;6345557;28;20200;-77
2023/08/21 03:01:06;;;;;;;;;;;;;;;;;;6345963;28;19928;-77
2023/08/21 03:04:07;;;;;;;;;;;;;;;;;;6345122;28;19982;-77
2023/08/21 03:07:08;;;;;;;;;;;;;;;;;;6344381;28;19957;-77
2023/08/21 03:10:10;;;;;;;;;;;;;;;;;;6344853;28;20200;-77
2023/08/21 03:13:11;;;;;;;;;;;;;;;;;;6345115;28;19928;-77
2023/08/21 03:16:12;;;;;;;;;;;;;;;;;;6344031;28;19948;-77
2023/08/21 03:19:13;;;;;;;;;;;;;;;;;;6346153;28;19926;-77
2023/08/21 03:22:14;;;;;;;;;;;;;;;;;;6342762;28;19927;-77
2023/08/21 03:25:16;;;;;;;;;;;;;;;;;;6342602;28;19935;-77
2023/08/21 03:28:17;;;;;;;;;;;;;;;;;;6343523;28;19935;-77
2023/08/21 03:31:18;;;;;;;;;;;;;;;;;;6347391;28;19932;-78
2023/08/21 03:34:19;;;;;;;;;;;;;;;;;;6344818;27;19927;-77
2023/08/21 03:37:20;;;;;;;;;;;;;;;;;;6344240;28;19934;-77
2023/08/21 03:40:22;;;;;;;;;;;;;;;;;;6345478;27;19920;-77
2023/08/21 03:43:23;;;;;;;;;;;;;;;;;;6343974;28;19932;-76
2023/08/21 03:46:24;;;;;;;;;;;;;;;;;;6342726;28;20227;-77
2023/08/21 03:49:25;;;;;;;;;;;;;;;;;;6344412;28;19920;-77
2023/08/21 03:52:26;;;;;;;;;;;;;;;;;;6344677;28;19928;-77
2023/08/21 03:55:28;;;;;;;;;;;;;;;;;;6343857;28;19928;-77
2023/08/21 03:58:29;;;;;;;;;;;;;;;;;;6343829;28;20200;-77
2023/08/21 04:01:30;;;;;;;;;;;;;;;;;;6343247;28;19927;-77
2023/08/21 04:04:32;;;;;;;;;;;;;;;;;;6345596;28;19928;-77
2023/08/21 04:07:33;;;;;;;;;;;;;;;;;;6344324;28;20232;-76
2023/08/21 04:10:34;;;;;;;;;;;;;;;;;;6343359;28;19973;-77
2023/08/21 04:13:35;;;;;;;;;;;;;;;;;;6344233;28;19926;-77
2023/08/21 04:16:36;;;;;;;;;;;;;;;;;;6343983;28;19932;-77
2023/08/21 04:19:40;;;;;;;;;;;;;;;;;;6343389;28;22031;-77
2023/08/21 04:22:42;;;;;;;;;;;;;;;;;;6342048;28;19947;-77
2023/08/21 04:25:43;;;;;;;;;;;;;;;;;;6344733;28;19924;-76
2023/08/21 04:28:44;;;;;;;;;;;;;;;;;;6344782;28;20002;-77
2023/08/21 04:31:45;;;;;;;;;;;;;;;;;;6342584;28;19935;-76
2023/08/21 04:34:47;;;;;;;;;;;;;;;;;;6344085;28;19924;-79
2023/08/21 04:37:48;;;;;;;;;;;;;;;;;;6342010;28;21942;-77
2023/08/21 04:40:49;;;;;;;;;;;;;;;;;;6345335;28;20340;-76
2023/08/21 04:43:50;;;;;;;;;;;;;;;;;;6343326;28;20211;-77
2023/08/21 04:46:52;;;;;;;;;;;;;;;;;;6343233;28;19966;-77
2023/08/21 04:49:53;;;;;;;;;;;;;;;;;;6344744;28;19931;-77
2023/08/21 04:52:54;;;;;;;;;;;;;;;;;;6344157;28;19943;-77
2023/08/21 04:55:55;;;;;;;;;;;;;;;;;;6343441;28;20212;-77
2023/08/21 04:58:56;;;;;;;;;;;;;;;;;;6343427;28;19920;-77
2023/08/21 05:01:58;;;;;;;;;;;;;;;;;;6348336;28;19998;-77
2023/08/21 05:04:59;;;;;;;;;;;;;;;;;;6347999;28;19928;-77
2023/08/21 05:08:00;;;;;;;;;;;;;;;;;;6351371;28;19927;-76
2023/08/21 05:11:01;;;;;;;;;;;;;;;;;;6348525;28;19927;-77
2023/08/21 05:14:03;;;;;;;;;;;;;;;;;;6347504;27;19932;-77
2023/08/21 05:17:04;;;;;;;;;;;;;;;;;;6347628;28;19967;-77
2023/08/21 05:20:05;;;;;;;;;;;;;;;;;;6348301;28;19957;-77
2023/08/21 05:23:06;;;;;;;;;;;;;;;;;;6349452;28;19928;-76
2023/08/21 05:26:08;;;;;;;;;;;;;;;;;;6342831;28;19920;-77
2023/08/21 05:29:09;;;;;;;;;;;;;;;;;;6346948;28;19943;-77
2023/08/21 05:32:10;;;;;;;;;;;;;;;;;;6348111;28;19934;-77
2023/08/21 05:35:11;;;;;;;;;;;;;;;;;;6346951;28;19923;-77
2023/08/21 05:38:12;;;;;;;;;;;;;;;;;;6347034;28;20231;-77
2023/08/21 05:41:14;;;;;;;;;;;;;;;;;;6346764;28;19932;-77
2023/08/21 05:44:15;;;;;;;;;;;;;;;;;;6347493;28;19920;-76
2023/08/21 05:47:16;;;;;;;;;;;;;;;;;;6346356;28;20258;-77
2023/08/21 05:50:17;;;;;;;;;;;;;;;;;;6350149;28;20171;-77
2023/08/21 05:53:19;;;;;;;;;;;;;;;;;;6347649;28;19973;-77
2023/08/21 05:56:20;;;;;;;;;;;;;;;;;;6348940;28;19950;-77
2023/08/21 05:59:21;;;;;;;;;;;;;;;;;;6344340;28;19928;-77
2023/08/21 06:02:23;;;;;;;;;;;;;;;;;;6343993;28;19920;-77
2023/08/21 06:05:24;;;;;;;;;;;;;;;;;;6346816;28;20003;-77
2023/08/21 06:08:25;;;;;;;;;;;;;;;;;;6345709;28;20212;-77
2023/08/21 06:11:27;;;;;;;;;;;;;;;;;;6345713;28;19920;-77
2023/08/21 06:14:29;;;;;;;;;;;;;;;;;;6349131;28;20137;-77
2023/08/21 06:17:30;;;;;;;;;;;;;;;;;;6346489;28;19924;-77
2023/08/21 06:20:31;;;;;;;;;;;;;;;;;;6345945;27;19928;-77
2023/08/21 06:23:33;;;;;;;;;;;;;;;;;;6346689;28;19935;-77
2023/08/21 06:26:34;;;;;;;;;;;;;;;;;;6347177;28;20116;-77
2023/08/21 06:29:37;;;;;;;;;;;;;;;;;;6344094;28;20255;-77
2023/08/21 06:32:38;;;;;;;;;;;;;;;;;;6350117;28;20171;-77
2023/08/21 06:35:39;;;;;;;;;;;;;;;;;;6344596;28;20411;-77
2023/08/21 06:38:40;;;;;;;;;;;;;;;;;;6346391;28;20239;-77
2023/08/21 06:41:41;;;;;;;;;;;;;;;;;;6346836;28;20226;-77
2023/08/21 06:44:43;;;;;;;;;;;;;;;;;;6346512;28;20223;-77
2023/08/21 06:47:44;;;;;;;;;;;;;;;;;;6346057;28;19935;-76
2023/08/21 06:50:45;;;;;;;;;;;;;;;;;;6347249;28;19973;-77
2023/08/21 06:53:46;;;;;;;;;;;;;;;;;;6346083;28;19934;-77
2023/08/21 06:56:48;;;;;;;;;;;;;;;;;;6345248;28;20006;-77
2023/08/21 06:59:49;;;;;;;;;;;;;;;;;;6345255;28;19935;-77
2023/08/21 07:02:50;;;;;;;;;;;;;;;;;;6344952;28;19936;-77
2023/08/21 07:05:51;;;;;;;;;;;;;;;;;;6344726;28;19928;-77
2023/08/21 07:08:53;;;;;;;;;;;;;;;;;;6347576;28;19920;-76
2023/08/21 07:11:54;;;;;;;;;;;;;;;;;;6346498;28;19927;-77
2023/08/21 07:14:55;;;;;;;;;;;;;;;;;;6344501;28;20660;-77
2023/08/21 07:17:56;;;;;;;;;;;;;;;;;;6344671;28;19938;-77
2023/08/21 07:20:57;;;;;;;;;;;;;;;;;;6347029;28;20205;-77
2023/08/21 07:23:59;;;;;;;;;;;;;;;;;;6345609;28;19935;-78
2023/08/21 07:27:00;;;;;;;;;;;;;;;;;;6344371;28;20235;-77
2023/08/21 07:30:01;;;;;;;;;;;;;;;;;;6340143;28;19920;-77
2023/08/21 07:33:02;;;;;;;;;;;;;;;;;;6345622;28;20200;-78
2023/08/21 07:36:03;;;;;;;;;;;;;;;;;;6343276;28;19923;-77
2023/08/21 07:39:05;;;;;;;;;;;;;;;;;;6346032;28;20204;-77
2023/08/21 07:42:06;;;;;;;;;;;;;;;;;;6342250;27;19920;-77
2023/08/21 07:45:07;;;;;;;;;;;;;;;;;;6341888;28;19928;-77
2023/08/21 07:48:09;;;;;;;;;;;;;;;;;;6344133;28;19920;-77
2023/08/21 07:51:10;;;;;;;;;;;;;;;;;;6345827;28;19970;-77
2023/08/21 07:54:11;;;;;;;;;;;;;;;;;;6342291;28;19927;-77
2023/08/21 07:57:13;;;;;;;;;;;;;;;;;;6342904;27;19928;-76
2023/08/21 08:00:14;;;;;;;;;;;;;;;;;;6341468;28;19920;-77
2023/08/21 08:03:15;;;;;;;;;;;;;;;;;;6343275;28;20011;-77
2023/08/21 08:06:17;;;;;;;;;;;;;;;;;;6341905;28;19939;-77
2023/08/21 08:09:19;;;;;;;;;;;;;;;;;;6346041;28;20150;-77
2023/08/21 08:12:21;;;;;;;;;;;;;;;;;;6342790;28;20019;-77
2023/08/21 08:15:22;;;;;;;;;;;;;;;;;;6343855;28;19928;-77
2023/08/21 08:18:23;;;;;;;;;;;;;;;;;;6343720;28;19935;-77
2023/08/21 08:21:24;;;;;;;;;;;;;;;;;;6341481;28;19920;-77
2023/08/21 08:24:25;;;;;;;;;;;;;;;;;;6340556;28;19939;-77
2023/08/21 08:27:27;;;;;;;;;;;;;;;;;;6345374;28;19927;-77
2023/08/21 08:30:28;;;;;;;;;;;;;;;;;;6344194;28;19950;-77
2023/08/21 08:33:29;;;;;;;;;;;;;;;;;;6346276;28;19920;-77
2023/08/21 08:36:30;;;;;;;;;;;;;;;;;;6349736;28;19928;-77
2023/08/21 08:39:32;;;;;;;;;;;;;;;;;;6350310;28;19961;-77
2023/08/21 08:42:33;;;;;;;;;;;;;;;;;;6348242;28;19950;-77
2023/08/21 08:45:34;;;;;;;;;;;;;;;;;;6349633;28;19934;-77
2023/08/21 08:48:35;;;;;;;;;;;;;;;;;;6349604;28;19934;-77
2023/08/21 08:51:37;;;;;;;;;;;;;;;;;;6350014;27;19920;-77
2023/08/21 08:54:38;;;;;;;;;;;;;;;;;;6347536;28;19932;-77
2023/08/21 08:57:39;;;;;;;;;;;;;;;;;;6347670;28;19967;-77
2023/08/21 09:00:41;;;;;;;;;;;;;;;;;;6350215;28;19957;-77
2023/08/21 09:03:42;;;;;;;;;;;;;;;;;;6348944;28;19928;-77
2023/08/21 09:06:43;;;;;;;;;;;;;;;;;;6347317;28;19935;-77
2023/08/21 09:09:44;;;;;;;;;;;;;;;;;;6349185;27;19950;-76
2023/08/21 09:12:45;;;;;;;;;;;;;;;;;;6346222;28;19920;-77
2023/08/21 09:15:47;;;;;;;;;;;;;;;;;;6348457;28;19935;-77
2023/08/21 09:18:48;;;;;;;;;;;;;;;;;;6299316;28;19978;-77
2023/08/21 09:21:50;;;;;;;;;;;;;;;;;;6300895;28;19971;-77
2023/08/21 09:24:51;;;;;;;;;;;;;;;;;;6298862;28;19934;-77
2023/08/21 09:27:52;;;;;;;;;;;;;;;;;;6298854;28;19921;-77
2023/08/21 09:30:54;;;;;;;;;;;;;;;;;;6273865;28;19929;-77
2023/08/21 09:33:55;;;;;;;;;;;;;;;;;;6274451;28;19929;-77
2023/08/21 09:36:56;;;;;;;;;;;;;;;;;;6272721;28;19959;-78
2023/08/21 09:39:57;;;;;;;;;;;;;;;;;;6274678;28;19929;-77
2023/08/21 09:42:59;;;;;;;;;;;;;;;;;;6275875;28;20263;-77
2023/08/21 09:46:00;;;;;;;;;;;;;;;;;;6271896;28;20200;-77
2023/08/21 09:49:02;;;;;;;;;;;;;;;;;;6270834;28;20116;-76
2023/08/21 09:52:04;;;;;;;;;;;;;;;;;;6275491;28;19921;-76
2023/08/21 09:55:06;;;;;;;;;;;;;;;;;;6275178;28;19974;-77
2023/08/21 09:58:07;;;;;;;;;;;;;;;;;;6272587;28;19995;-77
2023/08/21 10:01:11;;;;;;;;;;;;;;;;;;6273432;28;19940;-79
2023/08/21 10:04:14;;;;;;;;;;;;;;;;;;6274326;28;20326;-79
2023/08/21 10:07:16;;;;;;;;;;;;;;;;;;6273547;28;19933;-76
2023/08/21 10:10:17;;;;;;;;;;;;;;;;;;6268571;28;19986;-77
2023/08/21 10:13:19;;;;;;;;;;;;;;;;;;6272985;28;20314;-79
2023/08/21 10:16:21;;;;;;;;;;;;;;;;;;6279770;28;19935;-78
2023/08/21 10:19:23;;;;;;;;;;;;;;;;;;6327748;28;19927;-78
2023/08/21 10:22:24;;;;;;;;;;;;;;;;;;6350403;28;19926;-78
2023/08/21 10:25:26;;;;;;;;;;;;;;;;;;6353623;27;19920;-78
2023/08/21 10:28:27;;;;;;;;;;;;;;;;;;6355224;28;20119;-78
2023/08/21 10:31:28;;;;;;;;;;;;;;;;;;6347162;28;19920;-78
2023/08/21 10:34:30;;;;;;;;;;;;;;;;;;6354988;28;19990;-78
2023/08/21 10:37:31;;;;;;;;;;;;;;;;;;6353154;27;20197;-78
2023/08/21 10:40:32;;;;;;;;;;;;;;;;;;6357161;28;20204;-78
2023/08/21 10:43:34;;;;;;;;;;;;;;;;;;6356713;27;19927;-78
2023/08/21 10:46:35;;;;;;;;;;;;;;;;;;6353749;28;19920;-78
2023/08/21 10:49:36;;;;;;;;;;;;;;;;;;6355205;28;19927;-78
2023/08/21 10:52:37;;;;;;;;;;;;;;;;;;6355770;28;20105;-78
2023/08/21 10:55:38;;;;;;;;;;;;;;;;;;6344680;28;19931;-77
2023/08/21 10:58:40;;;;;;;;;;;;;;;;;;6343901;28;19934;-77
2023/08/21 11:01:42;;;;;;;;;;;;;;;;;;6345234;28;20914;-76
2023/08/21 11:04:44;;;;;;;;;;;;;;;;;;6345451;28;20175;-76
2023/08/21 11:07:45;;;;;;;;;;;;;;;;;;6346305;28;20137;-78
2023/08/21 11:10:46;;;;;;;;;;;;;;;;;;6346744;28;19927;-78
2023/08/21 11:13:47;;;;;;;;;;;;;;;;;;6346494;28;19920;-78
2023/08/21 11:16:49;;;;;;;;;;;;;;;;;;6345536;28;20243;-78
2023/08/21 11:19:51;;;;;;;;;;;;;;;;;;6346771;27;20295;-77
2023/08/21 11:22:52;;;;;;;;;;;;;;;;;;6343420;28;19928;-79
2023/08/21 11:25:53;;;;;;;;;;;;;;;;;;6344980;28;19926;-78
2023/08/21 11:28:55;;;;;;;;;;;;;;;;;;6346431;28;19919;-78
2023/08/21 11:31:56;;;;;;;;;;;;;;;;;;6342175;28;20212;-78
2023/08/21 11:34:57;;;;;;;;;;;;;;;;;;6319927;28;19929;-78
2023/08/21 11:37:58;;;;;;;;;;;;;;;;;;6320112;28;20008;-78
2023/08/21 11:40:59;;;;;;;;;;;;;;;;;;6345267;28;20142;-77
2023/08/21 11:44:00;;;;;;;;;;;;;;;;;;6342596;28;19928;-78
2023/08/21 11:47:03;;;;;;;;;;;;;;;;;;6345148;28;19927;-77
2023/08/21 11:50:04;;;;;;;;;;;;;;;;;;6345485;28;19919;-79
2023/08/21 11:53:06;;;;;;;;;;;;;;;;;;6346369;28;19943;-77
2023/08/21 11:56:07;;;;;;;;;;;;;;;;;;6340658;28;19928;-77
2023/08/21 11:59:09;;;;;;;;;;;;;;;;;;6345106;28;20151;-78
2023/08/21 12:02:10;;;;;;;;;;;;;;;;;;6344244;28;19920;-77
2023/08/21 12:05:11;;;;;;;;;;;;;;;;;;6345903;28;19919;-77
2023/08/21 12:08:12;;;;;;;;;;;;;;;;;;6344218;27;19932;-78
2023/08/21 12:11:14;;;;;;;;;;;;;;;;;;6345029;28;19928;-78
2023/08/21 12:14:16;;;;;;;;;;;;;;;;;;6345854;28;19927;-78
2023/08/21 12:17:18;;;;;;;;;;;;;;;;;;6345049;28;19932;-78
2023/08/21 12:20:21;;;;;;;;;;;;;;;;;;6341850;28;20212;-78
2023/08/21 12:23:22;;;;;;;;;;;;;;;;;;6342489;28;20227;-78
2023/08/21 12:26:23;;;;;;;;;;;;;;;;;;6344498;28;19927;-77
2023/08/21 12:29:24;;;;;;;;;;;;;;;;;;6342882;28;20121;-77
2023/08/21 12:32:25;;;;;;;;;;;;;;;;;;6342756;28;19951;-77
2023/08/21 12:35:27;;;;;;;;;;;;;;;;;;6342305;28;19924;-77
2023/08/21 12:38:29;;;;;;;;;;;;;;;;;;6344477;28;19926;-78
2023/08/21 12:41:30;;;;;;;;;;;;;;;;;;6344631;28;19920;-77
2023/08/21 12:44:31;;;;;;;;;;;;;;;;;;6344847;28;19920;-77
2023/08/21 12:47:33;;;;;;;;;;;;;;;;;;6342398;28;19927;-77
2023/08/21 12:50:34;;;;;;;;;;;;;;;;;;6345381;28;19950;-77
2023/08/21 12:53:35;;;;;;;;;;;;;;;;;;6345043;28;19935;-77
2023/08/21 12:56:37;;;;;;;;;;;;;;;;;;6340575;28;19934;-77
2023/08/21 12:59:38;;;;;;;;;;;;;;;;;;6342591;28;19920;-76
2023/08/21 13:02:39;;;;;;;;;;;;;;;;;;6344422;28;19928;-77
2023/08/21 13:05:41;;;;;;;;;;;;;;;;;;6343635;28;20216;-78
2023/08/21 13:08:42;;;;;;;;;;;;;;;;;;6345424;28;19926;-75
2023/08/21 13:11:43;;;;;;;;;;;;;;;;;;6343676;28;19921;-76
2023/08/21 13:14:46;;;;;;;;;;;;;;;;;;6342778;28;19928;-78
2023/08/21 13:17:47;;;;;;;;;;;;;;;;;;6342798;28;20120;-77
2023/08/21 13:20:48;;;;;;;;;;;;;;;;;;6344525;28;19919;-77
2023/08/21 13:23:49;;;;;;;;;;;;;;;;;;6349891;28;19920;-78
2023/08/21 13:26:50;;;;;;;;;;;;;;;;;;6345989;28;20193;-78
2023/08/21 13:29:52;;;;;;;;;;;;;;;;;;6346936;28;19928;-78
2023/08/21 13:32:53;;;;;;;;;;;;;;;;;;6349561;28;19924;-78
2023/08/21 13:35:55;;;;;;;;;;;;;;;;;;6347994;28;19920;-76
2023/08/21 13:38:56;;;;;;;;;;;;;;;;;;6348406;28;19936;-78
2023/08/21 13:41:57;;;;;;;;;;;;;;;;;;6346993;28;19938;-78
2023/08/21 13:44:58;;;;;;;;;;;;;;;;;;6348010;28;20243;-78
2023/08/21 13:47:59;;;;;;;;;;;;;;;;;;6348254;28;19938;-78
2023/08/21 13:51:01;;;;;;;;;;;;;;;;;;6348597;28;20208;-79
2023/08/21 13:54:02;;;;;;;;;;;;;;;;;;6345274;28;19927;-77
2023/08/21 13:57:03;;;;;;;;;;;;;;;;;;6345556;28;19920;-78
2023/08/21 14:00:07;;;;;;;;;;;;;;;;;;6347606;28;19931;-77
2023/08/21 14:03:08;;;;;;;;;;;;;;;;;;6347758;28;20200;-79
2023/08/21 14:06:11;;;;;;;;;;;;;;;;;;6346474;27;19919;-79
2023/08/21 14:09:13;;;;;;;;;;;;;;;;;;6346361;28;20103;-78
2023/08/21 14:12:14;;;;;;;;;;;;;;;;;;6347430;28;19951;-79
2023/08/21 14:15:15;;;;;;;;;;;;;;;;;;6347399;28;19928;-78
2023/08/21 14:18:16;;;;;;;;;;;;;;;;;;6348203;27;19931;-77
2023/08/21 14:21:17;;;;;;;;;;;;;;;;;;6348050;28;19965;-78
2023/08/21 14:24:19;;;;;;;;;;;;;;;;;;6346303;27;19928;-78
2023/08/21 14:27:20;;;;;;;;;;;;;;;;;;6346395;28;19965;-77
2023/08/21 14:30:21;;;;;;;;;;;;;;;;;;6346811;28;19934;-78
2023/08/21 14:33:22;;;;;;;;;;;;;;;;;;6347685;28;19919;-77
2023/08/21 14:36:24;;;;;;;;;;;;;;;;;;6346291;28;19966;-77
2023/08/21 14:39:25;;;;;;;;;;;;;;;;;;6347476;28;19934;-78
2023/08/21 14:42:26;;;;;;;;;;;;;;;;;;6345019;28;19935;-78
2023/08/21 14:45:27;;;;;;;;;;;;;;;;;;6347892;28;19926;-78
2023/08/21 14:48:29;;;;;;;;;;;;;;;;;;6346747;28;19963;-78
2023/08/21 14:51:30;;;;;;;;;;;;;;;;;;6346276;28;20574;-78
2023/08/21 14:54:31;;;;;;;;;;;;;;;;;;6345787;28;20235;-77
2023/08/21 14:57:32;;;;;;;;;;;;;;;;;;6347543;28;19928;-77
2023/08/21 15:00:34;;;;;;;;;;;;;;;;;;6347121;28;19934;-78
2023/08/21 15:03:35;;;;;;;;;;;;;;;;;;6346483;28;20208;-78
2023/08/21 15:06:36;;;;;;;;;;;;;;;;;;6346679;28;19927;-78
2023/08/21 15:09:37;;;;;;;;;;;;;;;;;;6347407;28;19934;-77
2023/08/21 15:12:39;;;;;;;;;;;;;;;;;;6346151;28;19928;-78
2023/08/21 15:15:40;;;;;;;;;;;;;;;;;;6345990;28;19926;-79
2023/08/21 15:18:41;;;;;;;;;;;;;;;;;;6345791;28;20139;-80
2023/08/21 15:21:43;;;;;;;;;;;;;;;;;;6344714;28;19935;-78
2023/08/21 15:24:44;;;;;;;;;;;;;;;;;;6344483;28;19920;-78
2023/08/21 15:27:45;;;;;;;;;;;;;;;;;;6342170;28;19920;-78
2023/08/21 15:30:47;;;;;;;;;;;;;;;;;;6345267;28;19982;-78
2023/08/21 15:33:48;;;;;;;;;;;;;;;;;;6343484;28;20133;-78
2023/08/21 15:36:49;;;;;;;;;;;;;;;;;;6342806;28;19938;-79
2023/08/21 15:39:51;;;;;;;;;;;;;;;;;;6347186;28;19932;-78
2023/08/21 15:42:52;;;;;;;;;;;;;;;;;;6343709;28;19996;-79
2023/08/21 15:45:53;;;;;;;;;;;;;;;;;;6342216;28;19935;-78
2023/08/21 15:48:55;;;;;;;;;;;;;;;;;;6344558;28;19928;-78
2023/08/21 15:51:56;;;;;;;;;;;;;;;;;;6347612;28;19928;-79
2023/08/21 15:54:57;;;;;;;;;;;;;;;;;;6343105;28;19926;-79
2023/08/21 15:57:58;;;;;;;;;;;;;;;;;;6342716;28;19928;-77
2023/08/21 16:01:00;;;;;;;;;;;;;;;;;;6343840;28;19934;-79
2023/08/21 16:04:02;;;;;;;;;;;;;;;;;;6342258;28;19923;-78
2023/08/21 16:07:03;;;;;;;;;;;;;;;;;;6343928;28;19920;-78
2023/08/21 16:10:04;;;;;;;;;;;;;;;;;;6343333;28;21094;-78
2023/08/21 16:13:06;;;;;;;;;;;;;;;;;;6345551;28;20016;-78
2023/08/21 16:16:07;;;;;;;;;;;;;;;;;;6342279;28;19920;-78
2023/08/21 16:19:08;;;;;;;;;;;;;;;;;;6345262;28;19928;-78
2023/08/21 16:22:09;;;;;;;;;;;;;;;;;;6343671;28;19934;-78
2023/08/21 16:25:12;;;;;;;;;;;;;;;;;;6343671;28;19926;-79
2023/08/21 16:28:13;;;;;;;;;;;;;;;;;;6343004;28;19965;-77
2023/08/21 16:31:15;;;;;;;;;;;;;;;;;;6342316;28;19923;-77
2023/08/21 16:34:16;;;;;;;;;;;;;;;;;;6343334;28;19928;-79
2023/08/21 16:37:17;;;;;;;;;;;;;;;;;;6341905;28;20236;-77
2023/08/21 16:40:18;;;;;;;;;;;;;;;;;;6344743;28;20107;-79
2023/08/21 16:43:20;;;;;;;;;;;;;;;;;;6344894;28;19928;-78
2023/08/21 16:46:21;;;;;;;;;;;;;;;;;;6342622;28;19934;-78
2023/08/21 16:49:22;;;;;;;;;;;;;;;;;;6342972;28;19923;-78
2023/08/21 16:52:23;;;;;;;;;;;;;;;;;;6345969;28;20204;-78
2023/08/21 16:55:25;;;;;;;;;;;;;;;;;;6346515;28;19932;-79
2023/08/21 16:58:26;;;;;;;;;;;;;;;;;;6351053;27;19919;-77
2023/08/21 17:01:27;;;;;;;;;;;;;;;;;;6349837;28;19919;-78
2023/08/21 17:04:28;;;;;;;;;;;;;;;;;;6350794;28;19935;-78
2023/08/21 17:07:32;;;;;;;;;;;;;;;;;;6349415;28;19919;-78
2023/08/21 17:10:34;;;;;;;;;;;;;;;;;;6347128;28;19942;-76
2023/08/21 17:13:35;;;;;;;;;;;;;;;;;;6349200;28;19927;-77
2023/08/21 17:16:36;;;;;;;;;;;;;;;;;;6347389;28;19958;-77
2023/08/21 17:19:38;;;;;;;;;;;;;;;;;;6346574;28;19935;-78
2023/08/21 17:22:39;;;;;;;;;;;;;;;;;;6347839;28;20199;-78
2023/08/21 17:25:40;;;;;;;;;;;;;;;;;;6348695;28;19920;-77
2023/08/21 17:28:41;;;;;;;;;;;;;;;;;;6349118;28;19938;-78
2023/08/21 17:31:43;;;;;;;;;;;;;;;;;;6345548;28;19928;-78
2023/08/21 17:34:44;;;;;;;;;;;;;;;;;;6347835;28;19935;-78
2023/08/21 17:37:45;;;;;;;;;;;;;;;;;;6346812;28;19934;-77
2023/08/21 17:40:46;;;;;;;;;;;;;;;;;;6349202;27;19919;-78
2023/08/21 17:43:48;;;;;;;;;;;;;;;;;;6349600;28;20097;-77
2023/08/21 17:46:49;;;;;;;;;;;;;;;;;;6346661;28;19920;-78
2023/08/21 17:49:51;;;;;;;;;;;;;;;;;;6349600;28;20231;-78
2023/08/21 17:52:52;;;;;;;;;;;;;;;;;;6348050;27;20195;-78
2023/08/21 17:55:53;;;;;;;;;;;;;;;;;;6346075;28;20108;-77
2023/08/21 17:58:55;;;;;;;;;;;;;;;;;;6348942;28;19920;-78
2023/08/21 18:01:57;;;;;;;;;;;;;;;;;;6347563;28;19934;-78
2023/08/21 18:04:59;;;;;;;;;;;;;;;;;;6348538;28;20085;-76
2023/08/21 18:08:00;;;;;;;;;;;;;;;;;;6348492;28;19928;-76
2023/08/21 18:11:03;;;;;;;;;;;;;;;;;;6348481;28;19972;-77
2023/08/21 18:14:04;;;;;;;;;;;;;;;;;;6346058;28;19970;-77
2023/08/21 18:17:12;;;;;;;;;;;;;;;;;;6346887;28;20151;-78
2023/08/21 18:20:13;;;;;;;;;;;;;;;;;;6345590;28;20003;-78
2023/08/21 18:23:15;;;;;;;;;;;;;;;;;;6351210;28;19928;-78
2023/08/21 18:26:16;;;;;;;;;;;;;;;;;;6355831;28;19935;-78
2023/08/21 18:29:18;;;;;;;;;;;;;;;;;;6353400;28;20242;-78
2023/08/21 18:32:19;;;;;;;;;;;;;;;;;;6354326;28;20493;-78
2023/08/21 18:35:21;;;;;;;;;;;;;;;;;;6353643;28;19995;-78
2023/08/21 18:38:22;;;;;;;;;;;;;;;;;;6353556;28;19928;-79
2023/08/21 18:41:23;;;;;;;;;;;;;;;;;;6356201;28;19919;-77
2023/08/21 18:44:25;;;;;;;;;;;;;;;;;;6353319;28;19968;-78
2023/08/21 18:47:27;;;;;;;;;;;;;;;;;;6355965;28;19947;-78
2023/08/21 18:50:28;;;;;;;;;;;;;;;;;;6356569;28;19978;-77
2023/08/21 18:53:30;;;;;;;;;;;;;;;;;;6357754;27;19920;-77
2023/08/21 18:56:33;;;;;;;;;;;;;;;;;;6355231;28;19932;-76
2023/08/21 18:59:35;;;;;;;;;;;;;;;;;;6343014;28;20266;-76
2023/08/21 19:02:36;;;;;;;;;;;;;;;;;;6345213;28;19928;-77
2023/08/21 19:05:37;;;;;;;;;;;;;;;;;;6345553;28;19928;-76
2023/08/21 19:08:38;;;;;;;;;;;;;;;;;;6344332;27;19928;-77
2023/08/21 19:11:40;;;;;;;;;;;;;;;;;;6343686;28;19999;-76
2023/08/21 19:14:41;;;;;;;;;;;;;;;;;;6345290;28;19951;-78
2023/08/21 19:17:43;;;;;;;;;;;;;;;;;;6344594;27;19936;-78
2023/08/21 19:20:44;;;;;;;;;;;;;;;;;;6342894;28;20034;-79
2023/08/21 19:23:45;;;;;;;;;;;;;;;;;;6345375;28;20470;-79
2023/08/21 19:26:46;;;;;;;;;;;;;;;;;;6340387;28;19938;-76
2023/08/21 19:29:48;;;;;;;;;;;;;;;;;;6341520;28;19935;-79
2023/08/21 19:32:49;;;;;;;;;;;;;;;;;;6344429;28;19920;-78
2023/08/21 19:35:50;;;;;;;;;;;;;;;;;;6344707;28;19939;-78
2023/08/21 19:38:52;;;;;;;;;;;;;;;;;;6346532;28;19927;-78
2023/08/21 19:41:53;;;;;;;;;;;;;;;;;;6345955;28;20266;-78
2023/08/21 19:44:55;;;;;;;;;;;;;;;;;;6346287;28;19928;-78
2023/08/21 19:47:56;;;;;;;;;;;;;;;;;;6343099;28;20475;-78
2023/08/21 19:50:57;;;;;;;;;;;;;;;;;;6345663;28;19927;-78
2023/08/21 19:53:58;;;;;;;;;;;;;;;;;;6346056;28;19928;-78
2023/08/21 19:56:59;;;;;;;;;;;;;;;;;;6343815;28;19959;-77
2023/08/21 20:00:01;;;;;;;;;;;;;;;;;;6346522;28;19920;-78
2023/08/21 20:03:04;;;;;;;;;;;;;;;;;;6344652;28;19928;-79
2023/08/21 20:06:07;;;;;;;;;;;;;;;;;;6342496;28;19926;-78
2023/08/21 20:09:10;;;;;;;;;;;;;;;;;;6346460;28;19919;-78
2023/08/21 20:12:11;;;;;;;;;;;;;;;;;;6344794;28;19920;-78
2023/08/21 20:15:12;;;;;;;;;;;;;;;;;;6345181;28;19924;-78
2023/08/21 20:18:14;;;;;;;;;;;;;;;;;;6345001;28;19965;-79
2023/08/21 20:21:16;;;;;;;;;;;;;;;;;;6344889;28;19928;-79
2023/08/21 20:24:18;;;;;;;;;;;;;;;;;;6343968;28;20243;-78
2023/08/21 20:27:19;;;;;;;;;;;;;;;;;;6346702;28;19919;-78
2023/08/21 20:30:20;;;;;;;;;;;;;;;;;;6343877;28;19928;-78
2023/08/21 20:33:21;;;;;;;;;;;;;;;;;;6345302;28;19957;-78
2023/08/21 20:36:22;;;;;;;;;;;;;;;;;;6342016;28;19989;-78
2023/08/21 20:39:24;;;;;;;;;;;;;;;;;;6345501;28;19973;-78